Time;durP1;ratioP1;P1;durP2;ratioP2;P2;SDS_P1;SDS_P2;PMS_P1;PMS_P2;Temp;Humidity;BMP_temperature;BMP_pressure;BME280_temperature;BME280_humidity;BME280_pressure;Samples;Min_cycle;Max_cycle;Signal;HPM_P1;HPM_P2
2023/04/15 00:05:32;;;;;;;5.13;1.92;;;9.60;1.00;;;;;;20639801;28;20046;-40
2023/04/15 00:15:33;;;;;;;4.05;1.67;;;9.50;1.00;;;;;;20621209;28;20052;-40
2023/04/15 00:25:34;;;;;;;3.53;2.00;;;9.60;1.00;;;;;;20620600;28;20054;-40
2023/04/15 00:35:38;;;;;;;2.90;1.30;;;9.60;1.00;;;;;;20620546;28;20529;-40
2023/04/15 00:45:40;;;;;;;7.40;1.70;;;9.50;1.00;;;;;;20614060;28;20137;-40
2023/04/15 00:55:41;;;;;;;3.78;2.03;;;9.30;1.00;;;;;;20628281;28;20038;-40
2023/04/15 01:05:42;;;;;;;7.50;1.90;;;9.20;1.00;;;;;;20625602;28;20057;-40
2023/04/15 01:15:43;;;;;;;5.32;1.88;;;9.00;1.00;;;;;;20649706;28;20516;-40
2023/04/15 01:25:45;;;;;;;3.08;1.63;;;8.80;1.00;;;;;;20626257;28;20455;-40
2023/04/15 01:35:46;;;;;;;3.13;1.75;;;8.80;1.00;;;;;;20637065;28;20057;-39
2023/04/15 01:45:47;;;;;;;5.47;2.28;;;8.80;1.00;;;;;;20620207;28;20426;-40
2023/04/15 01:55:49;;;;;;;3.65;1.83;;;8.70;1.00;;;;;;20616406;28;20042;-40
2023/04/15 02:05:50;;;;;;;6.78;2.35;;;8.70;1.00;;;;;;20624514;28;20356;-40
2023/04/15 02:15:51;;;;;;;4.75;2.40;;;8.60;1.00;;;;;;20629843;28;20046;-40
2023/04/15 02:25:52;;;;;;;5.45;2.83;;;8.50;1.00;;;;;;20647353;28;20414;-40
2023/04/15 02:35:54;;;;;;;5.30;2.35;;;8.30;1.00;;;;;;20644381;28;20661;-40
2023/04/15 02:45:55;;;;;;;3.72;1.60;;;8.20;1.00;;;;;;20647907;28;20552;-40
2023/04/15 02:55:56;;;;;;;5.13;2.05;;;8.10;1.00;;;;;;20634189;28;20041;-40
2023/04/15 03:05:57;;;;;;;5.57;2.15;;;8.00;1.00;;;;;;20625165;28;20482;-40
2023/04/15 03:15:58;;;;;;;9.05;2.33;;;7.90;1.00;;;;;;20630833;28;20401;-40
2023/04/15 03:26:03;;;;;;;5.15;1.98;;;7.80;1.00;;;;;;20625200;28;20736;-40
2023/04/15 03:36:04;;;;;;;3.25;1.83;;;7.80;1.00;;;;;;20612757;28;20415;-40
2023/04/15 03:46:05;;;;;;;4.43;2.28;;;7.60;1.00;;;;;;20604457;28;20034;-40
2023/04/15 03:56:07;;;;;;;3.75;1.77;;;7.60;1.00;;;;;;20603173;28;20360;-40
2023/04/15 04:06:08;;;;;;;3.95;2.05;;;7.40;1.00;;;;;;20646958;28;20674;-40
2023/04/15 04:16:09;;;;;;;4.43;2.55;;;7.40;1.00;;;;;;20628651;28;20393;-40
2023/04/15 04:26:10;;;;;;;4.13;2.42;;;7.40;1.00;;;;;;20619382;28;20053;-40
2023/04/15 04:36:11;;;;;;;3.90;2.03;;;7.40;1.00;;;;;;20590348;28;1109988;-40
2023/04/15 04:46:12;;;;;;;8.20;2.15;;;7.20;1.00;;;;;;20654305;28;20429;-40
2023/04/15 04:56:13;;;;;;;3.72;2.38;;;7.00;1.00;;;;;;20647341;28;20619;-40
2023/04/15 05:06:15;;;;;;;5.35;2.20;;;6.90;1.00;;;;;;20644200;28;20054;-40
2023/04/15 05:16:16;;;;;;;5.65;2.15;;;6.70;1.00;;;;;;20614888;28;20045;-40
2023/04/15 05:26:17;;;;;;;5.10;2.28;;;6.70;1.00;;;;;;20610491;28;20061;-38
2023/04/15 05:36:18;;;;;;;5.63;1.98;;;6.70;1.00;;;;;;20622149;28;20042;-38
2023/04/15 05:46:19;;;;;;;4.13;1.98;;;6.70;1.00;;;;;;20631192;28;20516;-39
2023/04/15 05:56:21;;;;;;;4.88;2.25;;;6.90;1.00;;;;;;20636347;28;20423;-38
2023/04/15 06:06:22;;;;;;;4.88;1.65;;;7.10;1.00;;;;;;20629019;28;21557;-39
2023/04/15 06:16:23;;;;;;;5.78;2.65;;;7.30;1.00;;;;;;20635089;28;20041;-38
2023/04/15 06:26:25;;;;;;;4.95;2.42;;;7.60;1.00;;;;;;20634292;28;20573;-41
2023/04/15 06:36:26;;;;;;;5.45;3.03;;;8.00;1.00;;;;;;20616124;28;20054;-41
2023/04/15 06:46:27;;;;;;;5.03;2.20;;;8.30;1.00;;;;;;20614211;28;20050;-40
2023/04/15 06:56:29;;;;;;;4.75;2.47;;;8.70;1.00;;;;;;20574565;28;20058;-41
2023/04/15 07:06:31;;;;;;;5.32;2.20;;;9.00;1.00;;;;;;20608284;28;20069;-40
2023/04/15 07:16:32;;;;;;;6.45;2.92;;;9.20;1.00;;;;;;20619821;28;20049;-43
2023/04/15 07:26:33;;;;;;;6.45;2.30;;;9.70;1.00;;;;;;20658217;28;20053;-43
2023/04/15 07:36:34;;;;;;;5.20;2.13;;;10.00;1.00;;;;;;20618120;28;20485;-42
2023/04/15 07:46:37;;;;;;;7.38;1.92;;;10.40;1.00;;;;;;20659113;28;20086;-42
2023/04/15 07:56:38;;;;;;;3.40;1.42;;;10.60;1.00;;;;;;20632597;28;20049;-42
2023/04/15 08:06:39;;;;;;;6.47;2.30;;;10.90;1.00;;;;;;20660553;28;20046;-42
2023/04/15 08:16:40;;;;;;;3.42;1.60;;;11.30;1.00;;;;;;20661765;28;20049;-42
2023/04/15 08:26:41;;;;;;;4.05;1.83;;;11.60;1.00;;;;;;20664688;28;20046;-41
2023/04/15 08:36:42;;;;;;;6.05;2.00;;;11.80;1.00;;;;;;20649395;28;20485;-43
2023/04/15 08:46:43;;;;;;;4.80;2.20;;;12.10;1.00;;;;;;20647488;28;20061;-41
2023/04/15 08:56:45;;;;;;;6.00;2.70;;;12.20;1.00;;;;;;20646577;28;20043;-42
2023/04/15 09:06:46;;;;;;;2.80;1.10;;;12.70;1.00;;;;;;20643952;28;20038;-42
2023/04/15 09:16:57;;;;;;;2.35;1.02;;;13.20;1.00;;;;;;20599863;28;20037;-41
2023/04/15 09:26:59;;;;;;;2.20;1.02;;;13.50;1.00;;;;;;20657986;28;20054;-41
2023/04/15 09:37:00;;;;;;;2.92;1.13;;;13.60;1.00;;;;;;20622143;28;20034;-41
2023/04/15 09:47:01;;;;;;;2.15;0.68;;;13.80;1.00;;;;;;20645928;28;20065;-40
2023/04/15 09:57:09;;;;;;;1.55;0.70;;;13.80;1.00;;;;;;20674923;28;20262;-40
2023/04/15 10:07:11;;;;;;;1.10;0.50;;;13.80;1.00;;;;;;20659551;28;20046;-41
2023/04/15 10:17:14;;;;;;;1.25;0.40;;;13.80;1.00;;;;;;20653386;28;20506;-41
2023/04/15 10:27:16;;;;;;;1.83;0.85;;;14.00;1.00;;;;;;20618704;28;20046;-42
2023/04/15 10:37:21;;;;;;;2.63;1.13;;;14.10;1.00;;;;;;20633234;28;20132;-41
2023/04/15 10:47:23;;;;;;;2.63;1.25;;;13.70;1.00;;;;;;20654833;28;20043;-41
2023/04/15 10:57:24;;;;;;;2.67;1.40;;;13.70;1.00;;;;;;20627277;28;20026;-41
2023/04/15 11:07:40;;;;;;;3.28;1.08;;;14.00;1.00;;;;;;20647012;28;20051;-40
2023/04/15 11:17:41;;;;;;;2.63;1.02;;;14.50;1.00;;;;;;20645063;28;20038;-42
2023/04/15 11:27:42;;;;;;;2.50;0.93;;;14.50;1.00;;;;;;20648879;28;20046;-40
2023/04/15 11:37:48;;;;;;;2.63;0.90;;;14.80;1.00;;;;;;20648291;28;20322;-40
2023/04/15 11:47:49;;;;;;;1.88;0.60;;;14.90;1.00;;;;;;20629399;28;21645;-39
2023/04/15 11:58:05;;;;;;;2.67;1.38;;;15.10;1.00;;;;;;20654961;28;20073;-40
2023/04/15 12:08:06;;;;;;;2.22;0.85;;;14.90;1.00;;;;;;20654233;28;20593;-40
2023/04/15 12:18:16;;;;;;;1.73;0.73;;;15.20;1.00;;;;;;20666317;28;20489;-40
2023/04/15 12:28:17;;;;;;;4.38;0.93;;;15.40;1.00;;;;;;20676998;28;20060;-40
2023/04/15 12:38:18;;;;;;;2.33;0.90;;;15.90;1.00;;;;;;20642224;28;20422;-40
2023/04/15 12:48:19;;;;;;;1.73;0.73;;;16.10;1.00;;;;;;20649467;28;20050;-40
2023/04/15 12:58:20;;;;;;;1.00;0.35;;;15.80;1.00;;;;;;20637028;28;20038;-40
2023/04/15 13:08:22;;;;;;;1.70;0.65;;;16.10;1.00;;;;;;20646498;28;20065;-40
2023/04/15 13:18:23;;;;;;;2.50;0.82;;;16.00;1.00;;;;;;20647125;28;20038;-40
2023/04/15 13:28:24;;;;;;;2.28;0.40;;;16.20;1.00;;;;;;20648974;28;20050;-40
2023/04/15 13:38:25;;;;;;;1.98;0.55;;;16.70;1.00;;;;;;20641191;28;20474;-40
2023/04/15 13:48:27;;;;;;;2.28;0.40;;;16.80;1.00;;;;;;20630600;28;20061;-40
2023/04/15 13:58:28;;;;;;;1.20;0.52;;;16.60;1.00;;;;;;20625108;28;20073;-40
2023/04/15 14:08:29;;;;;;;0.95;0.28;;;15.90;1.00;;;;;;20621348;28;20038;-40
2023/04/15 14:18:30;;;;;;;1.10;0.38;;;15.50;1.00;;;;;;20653161;28;20037;-42
2023/04/15 14:28:31;;;;;;;7.80;0.35;;;14.70;1.00;;;;;;20649117;28;20269;-40
2023/04/15 14:38:37;;;;;;;0.90;0.40;;;14.20;1.00;;;;;;20662452;28;20042;-42
2023/04/15 14:48:39;;;;;;;0.83;0.20;;;14.00;1.00;;;;;;20643814;28;20041;-40
2023/04/15 14:58:40;;;;;;;0.98;0.38;;;13.30;1.00;;;;;;20676880;28;21201;-40
2023/04/15 15:08:42;;;;;;;3.17;1.15;;;13.00;1.00;;;;;;20631478;28;20397;-41
2023/04/15 15:18:43;;;;;;;1.02;0.40;;;12.90;1.00;;;;;;20675493;28;20043;-42
2023/04/15 15:28:44;;;;;;;1.77;0.70;;;12.70;1.00;;;;;;20647075;28;20068;-40
2023/04/15 15:38:45;;;;;;;2.72;0.82;;;12.50;1.00;;;;;;20641649;28;20498;-41
2023/04/15 15:48:47;;;;;;;1.00;0.40;;;12.20;1.00;;;;;;20633965;28;20486;-41
2023/04/15 15:58:48;;;;;;;7.63;0.73;;;12.10;1.00;;;;;;20639480;28;20168;-41
2023/04/15 16:08:49;;;;;;;1.98;0.38;;;11.90;1.00;;;;;;20639873;28;20049;-42
2023/04/15 16:18:50;;;;;;;0.88;0.40;;;11.60;1.00;;;;;;20634774;28;20446;-41
2023/04/15 16:28:51;;;;;;;1.13;0.50;;;11.50;1.00;;;;;;20641794;28;20058;-42
2023/04/15 16:38:52;;;;;;;1.20;0.63;;;11.40;1.00;;;;;;20636255;28;20414;-42
2023/04/15 16:48:54;;;;;;;2.30;0.52;;;11.10;1.00;;;;;;20640799;28;20062;-42
2023/04/15 16:58:55;;;;;;;1.05;0.50;;;11.10;1.00;;;;;;20652589;28;20050;-42
2023/04/15 17:08:56;;;;;;;2.60;0.55;;;11.00;1.00;;;;;;20665142;28;20406;-41
2023/04/15 17:18:57;;;;;;;4.60;1.13;;;11.00;1.00;;;;;;20627562;28;20055;-42
2023/04/15 17:28:58;;;;;;;1.95;0.50;;;11.00;1.00;;;;;;20652948;28;20500;-41
2023/04/15 17:38:59;;;;;;;1.45;0.60;;;10.80;1.00;;;;;;20667683;28;20245;-41
2023/04/15 17:49:01;;;;;;;2.35;0.45;;;10.50;1.00;;;;;;20659297;28;20088;-41
2023/04/15 17:59:02;;;;;;;1.80;0.60;;;10.40;1.00;;;;;;20650462;28;20046;-42
2023/04/15 18:09:03;;;;;;;5.15;1.50;;;10.40;1.00;;;;;;20655196;28;20341;-41
2023/04/15 18:19:04;;;;;;;1.98;0.52;;;10.20;1.00;;;;;;20645588;28;20043;-41
2023/04/15 18:29:05;;;;;;;1.05;0.52;;;10.10;1.00;;;;;;20645408;28;20055;-41
2023/04/15 18:39:06;;;;;;;1.58;0.40;;;9.90;1.00;;;;;;20643818;28;20065;-42
2023/04/15 18:49:08;;;;;;;4.10;0.43;;;9.90;1.00;;;;;;20635325;28;20047;-41
2023/04/15 18:59:09;;;;;;;1.85;0.85;;;9.80;1.00;;;;;;20640340;28;20061;-41
2023/04/15 19:09:10;;;;;;;12.18;1.33;;;9.70;1.00;;;;;;20646045;28;20494;-41
2023/04/15 19:19:13;;;;;;;2.42;0.80;;;9.60;1.00;;;;;;20662076;28;20398;-41
2023/04/15 19:29:14;;;;;;;1.65;0.65;;;9.60;1.00;;;;;;20650851;28;20518;-41
2023/04/15 19:39:15;;;;;;;2.05;0.47;;;9.50;1.00;;;;;;20651033;28;20042;-41
2023/04/15 19:49:17;;;;;;;1.17;0.85;;;9.30;1.00;;;;;;20649110;28;20035;-41
2023/04/15 19:59:18;;;;;;;1.67;0.40;;;9.30;1.00;;;;;;20642792;28;20518;-42
2023/04/15 20:09:19;;;;;;;1.13;0.63;;;9.30;1.00;;;;;;20644994;28;20655;-40
2023/04/15 20:19:20;;;;;;;1.70;0.60;;;9.20;1.00;;;;;;20634528;28;20045;-39
2023/04/15 20:29:21;;;;;;;1.23;0.40;;;9.20;1.00;;;;;;20597577;28;20047;-39
2023/04/15 20:39:23;;;;;;;2.90;1.30;;;9.20;1.00;;;;;;20640630;28;20064;-39
2023/04/15 20:49:24;;;;;;;2.17;0.50;;;9.00;1.00;;;;;;20648474;28;20045;-39
2023/04/15 20:59:25;;;;;;;1.55;0.82;;;9.10;1.00;;;;;;20666005;28;20049;-39
2023/04/15 21:09:26;;;;;;;2.55;0.50;;;9.10;1.00;;;;;;20638915;28;20034;-39
2023/04/15 21:19:27;;;;;;;1.38;0.60;;;9.10;1.00;;;;;;20630697;28;20050;-39
2023/04/15 21:29:28;;;;;;;1.25;0.52;;;9.00;1.00;;;;;;20625699;28;20038;-40
2023/04/15 21:39:29;;;;;;;2.70;0.40;;;9.10;1.00;;;;;;20617276;28;20540;-39
2023/04/15 21:49:30;;;;;;;1.02;0.40;;;9.10;1.00;;;;;;20625857;28;20050;-39
2023/04/15 21:59:31;;;;;;;1.27;0.57;;;9.20;1.00;;;;;;20640050;28;20154;-39
2023/04/15 22:09:33;;;;;;;3.00;0.70;;;9.10;1.00;;;;;;20641770;28;20065;-39
2023/04/15 22:19:34;;;;;;;3.47;0.73;;;9.10;1.00;;;;;;20646691;28;20054;-39
2023/04/15 22:29:35;;;;;;;2.95;1.25;;;9.00;1.00;;;;;;20644983;28;20046;-39
2023/04/15 22:39:36;;;;;;;2.25;0.77;;;9.20;1.00;;;;;;20624333;28;20054;-39
2023/04/15 22:49:38;;;;;;;1.92;0.82;;;9.00;1.00;;;;;;20639371;28;20054;-39
2023/04/15 22:59:39;;;;;;;2.25;0.93;;;9.00;1.00;;;;;;20642337;28;20061;-39
2023/04/15 23:09:40;;;;;;;3.40;1.38;;;8.90;1.00;;;;;;20641262;28;20050;-39
2023/04/15 23:19:41;;;;;;;2.35;1.10;;;8.80;1.00;;;;;;20630535;28;20525;-39
2023/04/15 23:29:42;;;;;;;1.25;0.50;;;8.80;9.50;;;;;;20637286;28;20517;-39
2023/04/15 23:39:43;;;;;;;3.00;0.98;;;8.70;29.00;;;;;;20636853;28;20045;-39
2023/04/15 23:49:45;;;;;;;2.10;0.70;;;8.60;48.70;;;;;;20643750;28;20053;-39
2023/04/15 23:59:46;;;;;;;7.38;0.93;;;8.50;69.00;;;;;;20620482;28;20053;-39
